Flight Track Log - Related Links

Times and Time Zones

All times are in EDT time to prevent confusion due to time zone crossing. See the ASQ4255 flight status page for this flight to view local times or setup timezone preferences in your user account.

Time Position Orientation Groundspeed Altitude Reporting Facility
EDT Latitude Longitude Course Direction KTS MPH feet Rate Location/Type
Tue 01:18:45 PM 33.0000 -80.0072 13° North 226 260 5,100  Level Jacksonville Center
Tue 01:19:45 PM 33.0642 -79.9853 16° North 248 285 7,900 2,400 Climbing Jacksonville Center
Tue 01:20:00 PM 33.2379 -79.9291 North  Level FlightAware Approximate
Tue 01:20:45 PM 33.1367 -79.9656 13° North 268 308 9,900  Level Jacksonville Center
Tue 01:21:00 PM 33.3266 -79.9034 23° Northeast  Level FlightAware Approximate
Tue 01:21:45 PM 33.2281 -79.9378 14° North 299 344 11,400  Level Jacksonville Center
Tue 01:22:00 PM 33.4145 -79.8738 North  Level FlightAware Approximate
Tue 01:22:45 PM 33.3214 -79.9147 12° North 324 373 13,500  Level Jacksonville Center
Tue 01:23:00 PM 33.5043 -79.8512 13° North  Level FlightAware Approximate
Tue 01:23:45 PM 33.4208 -79.8864 13° North 344 396 15,100  Level Jacksonville Center
Tue 01:24:00 PM 33.5936 -79.8257 13° North  Level FlightAware Approximate
Tue 01:24:45 PM 33.5267 -79.8581 13° North 364 419 16,500  Level Jacksonville Center
Tue 01:25:45 PM 33.6303 -79.8269 14° North 376 433 17,800 1,350 Climbing Jacksonville Center
Tue 01:26:45 PM 33.7381 -79.7983 12° North 386 444 19,200 1,500 Climbing Jacksonville Center
Tue 01:27:45 PM 33.8436 -79.7694 13° North 386 444 20,800 1,550 Climbing Jacksonville Center
Tue 01:28:45 PM 33.9494 -79.7408 13° North 391 450 22,300 1,500 Climbing Jacksonville Center
Tue 01:29:45 PM 34.0569 -79.7067 15° North 391 450 23,800 1,500 Climbing Jacksonville Center
Tue 01:32:05 PM 34.2906 -79.6514 11° North 373 429 27,300 1,553 Climbing Washington Center
Tue 01:33:02 PM 34.3972 -79.6467 North 379 436 28,900 1,513 Climbing Washington Center
Tue 01:34:04 PM 34.5017 -79.6417 North 374 430 30,300 984 Climbing Washington Center
Tue 01:35:04 PM 34.6106 -79.6344 North 381 438 30,900 356 Climbing Washington Center
Tue 01:36:02 PM 34.7256 -79.6275 North 393 452 31,000 51 Climbing Washington Center
Tue 01:37:02 PM 34.8508 -79.6211 North 421 484 31,000  Level Washington Center
Tue 01:38:03 PM 34.9764 -79.6122 North 443 510 31,000  Level Washington Center
Tue 01:39:03 PM 35.1019 -79.6031 North 448 516 31,000  Level Washington Center
Tue 01:40:04 PM 35.2222 -79.5583 17° North 448 516 31,000 454 Level Washington Center
Tue 01:41:02 PM 35.3333 -79.4797 30° Northeast 438 504 31,900 1,261 Climbing Washington Center
Tue 01:42:03 PM 35.4531 -79.3939 30° Northeast 450 518 33,500 1,388 Climbing Washington Center
Tue 01:43:03 PM 35.5469 -79.3267 30° Northeast 445 512 34,700 744 Climbing Washington Center
Tue 01:44:04 PM 35.6494 -79.2497 31° Northeast 428 493 35,000 149 Climbing Washington Center
Tue 01:45:04 PM 35.7561 -79.1728 30° Northeast 433 498 35,000  Level Washington Center
Tue 01:46:02 PM 35.8606 -79.0956 31° Northeast 438 504 35,000  Level Washington Center
Tue 01:47:03 PM 35.9653 -79.0156 32° Northeast 438 504 35,000  Level Washington Center
Tue 01:48:03 PM 36.0717 -78.9378 31° Northeast 438 504 35,000  Level Washington Center
Tue 01:49:04 PM 36.1847 -78.8550 31° Northeast 433 498 35,000  Level Washington Center
Tue 01:50:05 PM 36.2889 -78.7769 31° Northeast 433 498 35,000  Level Washington Center
Tue 01:51:02 PM 36.3911 -78.7011 31° Northeast 433 498 35,000  Level Washington Center
Tue 01:52:02 PM 36.4933 -78.6225 32° Northeast 433 498 35,000  Level Washington Center
Tue 01:53:03 PM 36.5994 -78.5464 30° Northeast 433 498 35,000  Level Washington Center
Tue 01:54:04 PM 36.6889 -78.4697 34° Northeast 433 498 35,000  Level Washington Center
Tue 01:55:04 PM 36.7908 -78.3981 29° Northeast 428 493 35,000  Level Washington Center
Tue 01:56:05 PM 36.8950 -78.3164 32° Northeast 428 493 35,000  Level Washington Center
Tue 01:57:02 PM 37.0117 -78.2267 32° Northeast 439 505 35,000  Level Washington Center
Tue 01:58:03 PM 37.0944 -78.1644 31° Northeast 439 505 35,000  Level Washington Center
Tue 01:59:04 PM 37.2067 -78.0794 31° Northeast 433 498 35,000  Level Washington Center
Tue 02:00:02 PM 37.3106 -77.9994 31° Northeast 433 498 35,000  Level Washington Center
Tue 02:01:03 PM 37.3933 -77.9314 33° Northeast 433 498 35,000  Level Washington Center
Tue 02:02:03 PM 37.5203 -77.8358 31° Northeast 433 498 35,000  Level Washington Center
Tue 02:03:04 PM 37.6222 -77.7444 35° Northeast 438 504 35,000  Level Washington Center
Tue 02:04:02 PM 37.7258 -77.6528 35° Northeast 443 510 35,000  Level Washington Center
Tue 02:05:02 PM 37.8275 -77.5583 36° Northeast 448 516 35,000  Level Washington Center
Tue 02:06:03 PM 37.9292 -77.4636 36° Northeast 454 522 35,000  Level Washington Center
Tue 02:07:04 PM 38.0328 -77.3686 36° Northeast 454 522 35,000  Level Washington Center
Tue 02:08:04 PM 38.1322 -77.2786 35° Northeast 454 522 35,000  Level Washington Center
Tue 02:09:02 PM 38.2250 -77.1908 37° Northeast 460 529 35,000  Level Washington Center
Tue 02:10:03 PM 38.3497 -77.0769 36° Northeast 455 524 35,000  Level Washington Center
Tue 02:11:04 PM 38.4508 -76.9808 37° Northeast 455 524 35,000  Level Washington Center
Tue 02:12:02 PM 38.5542 -76.8872 35° Northeast 455 524 35,000  Level Washington Center
Tue 02:13:03 PM 38.6572 -76.7906 36° Northeast 455 524 35,000  Level Washington Center
Tue 02:14:04 PM 38.7561 -76.6858 40° Northeast 455 524 35,000 -446 Level Washington Center
Tue 02:15:04 PM 38.8508 -76.5753 42° Northeast 455 524 34,100 -1,271 Descending Washington Center
Tue 02:16:02 PM 38.9308 -76.4828 42° Northeast 461 531 32,500 -2,067 Descending Washington Center
Tue 02:17:03 PM 39.0486 -76.3481 42° Northeast 468 539 30,000 -2,311 Descending Washington Center
Tue 02:18:04 PM 39.1492 -76.2314 42° Northeast 473 544 27,800 -1,537 Descending Washington Center
Tue 02:19:04 PM 39.2394 -76.1303 41° Northeast 473 544 26,900 -407 Descending Washington Center
Tue 02:20:02 PM 39.3358 -76.0128 43° Northeast 473 544 27,000  Climbing Washington Center
Tue 02:21:02 PM 39.4319 -75.9033 41° Northeast 473 544 26,900 -645 Descending Washington Center
Tue 02:22:03 PM 39.5281 -75.7853 43° Northeast 468 539 25,700 -1,574 Descending Washington Center
Tue 02:23:04 PM 39.6219 -75.6778 41° Northeast 468 539 23,700 -2,118 Descending Washington Center
Tue 02:24:02 PM 39.7136 -75.5672 43° Northeast 456 525 21,500 -2,218 Descending Washington Center
Tue 02:25:03 PM 39.8072 -75.4564 42° Northeast 441 507 19,300 -2,066 Descending Washington Center
Tue 02:26:04 PM 39.8925 -75.3508 44° Northeast 426 490 17,300 -2,231 Descending Washington Center
Tue 02:27:04 PM 39.9736 -75.2531 43° Northeast 409 471 14,800 -2,492 Descending Washington Center
Tue 02:28:02 PM 40.0522 -75.1578 43° Northeast 397 457 12,400 -1,916 Descending Washington Center
Tue 02:29:03 PM 40.1269 -75.0650 43° Northeast 382 440 11,000 -1,230 Descending Washington Center
Tue 02:30:04 PM 40.1911 -74.9858 43° Northeast 351 404 9,900 -1,154 Descending Washington Center
Tue 02:31:39 PM 40.2833 -74.8667 45° Northeast 284 327 8,000 -745 Descending New York TRACON
Tue 02:32:45 PM 40.3333 -74.7833 52° Northeast 288 331 7,900 -524 Descending New York TRACON
Tue 02:33:45 PM 40.3500 -74.6833 78° East 290 334 6,900 -950 Descending New York TRACON
Tue 02:34:45 PM 40.3667 -74.5667 79° East 281 323 6,000 -450 Descending New York TRACON
Tue 02:35:45 PM 40.4167 -74.5167 37° Northeast 274 315 6,000  Level New York TRACON
Tue 02:36:45 PM 40.4833 -74.4833 21° North 271 312 6,000  Level New York TRACON
Tue 02:37:45 PM 40.5500 -74.5500 323° Northwest 263 303 6,000  Level New York TRACON
Tue 02:38:45 PM 40.6000 -74.6167 315° West 262 302 6,000  Level New York TRACON
Tue 02:39:45 PM 40.6667 -74.6333 349° North 272 313 6,000  Level New York TRACON
Tue 02:40:39 PM 40.6833 -74.5833 66° East 214 246 6,000  Level New York TRACON
Tue 02:41:39 PM 40.7333 -74.5333 37° Northeast 217 250 6,000  Level New York TRACON
Tue 02:42:45 PM 40.8000 -74.5333 360° North 204 235 6,000  Level New York TRACON
Tue 02:43:45 PM 40.8500 -74.5500 346° North 190 219 6,000 -350 Level New York TRACON
Tue 02:44:45 PM 40.9000 -74.5500 360° North 192 221 5,300 -526 Descending New York TRACON
Tue 02:45:39 PM 40.9500 -74.5500 360° North 186 214 5,000 -158 Descending New York TRACON
Tue 02:46:39 PM 41.0000 -74.5167 27° Northeast 208 239 5,000  Level New York TRACON
Tue 02:47:39 PM 41.0167 -74.4500 72° East 201 231 5,000  Level New York TRACON
Tue 02:48:39 PM 41.0167 -74.3833 90° East 206 237 5,000  Level New York TRACON
Tue 02:49:45 PM 40.9833 -74.3167 124° Southeast 205 236 5,000 -381 Level New York TRACON
Tue 02:50:45 PM 40.9500 -74.2500 123° Southeast 206 237 4,200 -500 Descending New York TRACON
Tue 02:51:45 PM 40.9333 -74.1833 108° East 201 231 4,000 -150 Descending New York TRACON
Tue 02:52:45 PM 40.9000 -74.1167 123° Southeast 201 231 3,900 -474 Descending New York TRACON
Tue 02:53:39 PM 40.8833 -74.0667 114° Southeast 205 236 3,100 -550 Descending New York TRACON
Tue 02:54:45 PM 40.8333 -74.0833 194° South 172 198 2,800 -571 Descending New York TRACON
Tue 02:55:45 PM 40.7833 -74.1000 194° South 167 192 1,900 -850 Descending New York TRACON
Tue 02:56:45 PM 40.7500 -74.1333 217° Southwest 141 162 1,100 -750 Descending New York TRACON
Tue 02:57:45 PM 40.7167 -74.1500 201° Southwest 139 160 400 -700 Descending New York TRACON

Login

Don't have an account? Register now (free) for customized features, flight alerts, and more!